sensor_id;sensor_type;location;lat;lon;timestamp;P1;durP1;ratioP1;P2;durP2;ratioP2
32451;SDS011;45528;52.102;5.242;2023-05-07T00:02:34;28.8;;;19.61;;
32451;SDS011;45528;52.102;5.242;2023-05-07T00:04:10;24.9;;;18.41;;
32451;SDS011;45528;52.102;5.242;2023-05-07T00:05:46;24.2;;;16.9;;
32451;SDS011;45528;52.102;5.242;2023-05-07T00:08:59;23.7;;;17.11;;
32451;SDS011;45528;52.102;5.242;2023-05-07T00:10:35;19.0;;;15.4;;
32451;SDS011;45528;52.102;5.242;2023-05-07T00:12:11;22.7;;;16.0;;
32451;SDS011;45528;52.102;5.242;2023-05-07T00:13:47;20.9;;;16.3;;
32451;SDS011;45528;52.102;5.242;2023-05-07T00:17:01;21.2;;;16.3;;
32451;SDS011;45528;52.102;5.242;2023-05-07T00:18:38;20.2;;;14.9;;
32451;SDS011;45528;52.102;5.242;2023-05-07T00:20:15;18.11;;;14.6;;
32451;SDS011;45528;52.102;5.242;2023-05-07T00:23:27;23.0;;;15.3;;
32451;SDS011;45528;52.102;5.242;2023-05-07T00:25:03;20.6;;;14.7;;
32451;SDS011;45528;52.102;5.242;2023-05-07T00:26:40;18.7;;;14.5;;
32451;SDS011;45528;52.102;5.242;2023-05-07T00:29:54;20.41;;;15.2;;
32451;SDS011;45528;52.102;5.242;2023-05-07T00:31:32;19.2;;;14.6;;
32451;SDS011;45528;52.102;5.242;2023-05-07T00:33:08;20.5;;;14.5;;
32451;SDS011;45528;52.102;5.242;2023-05-07T00:34:44;18.41;;;13.6;;
32451;SDS011;45528;52.102;5.242;2023-05-07T00:37:57;19.7;;;14.7;;
32451;SDS011;45528;52.102;5.242;2023-05-07T00:39:33;16.7;;;12.3;;
32451;SDS011;45528;52.102;5.242;2023-05-07T00:41:10;17.0;;;12.9;;
32451;SDS011;45528;52.102;5.242;2023-05-07T00:44:24;15.4;;;13.1;;
32451;SDS011;45528;52.102;5.242;2023-05-07T00:46:00;14.5;;;11.4;;
32451;SDS011;45528;52.102;5.242;2023-05-07T00:47:37;17.0;;;13.1;;
32451;SDS011;45528;52.102;5.242;2023-05-07T00:50:51;16.7;;;12.7;;
32451;SDS011;45528;52.102;5.242;2023-05-07T00:52:28;15.5;;;11.5;;
32451;SDS011;45528;52.102;5.242;2023-05-07T00:54:05;17.3;;;13.1;;
32451;SDS011;45528;52.102;5.242;2023-05-07T00:55:43;15.5;;;11.7;;
32451;SDS011;45528;52.102;5.242;2023-05-07T00:58:57;16.61;;;12.1;;
32451;SDS011;45528;52.102;5.242;2023-05-07T01:00:33;13.7;;;11.6;;
32451;SDS011;45528;52.102;5.242;2023-05-07T01:02:09;15.7;;;11.0;;
32451;SDS011;45528;52.102;5.242;2023-05-07T01:05:23;14.0;;;11.2;;
32451;SDS011;45528;52.102;5.242;2023-05-07T01:07:02;15.6;;;11.4;;
32451;SDS011;45528;52.102;5.242;2023-05-07T01:08:39;13.0;;;10.8;;
32451;SDS011;45528;52.102;5.242;2023-05-07T01:10:17;14.1;;;10.9;;
32451;SDS011;45528;52.102;5.242;2023-05-07T01:13:32;13.6;;;11.3;;
32451;SDS011;45528;52.102;5.242;2023-05-07T01:15:10;12.6;;;11.1;;
32451;SDS011;45528;52.102;5.242;2023-05-07T01:16:47;15.5;;;11.1;;
32451;SDS011;45528;52.102;5.242;2023-05-07T01:20:02;14.4;;;11.0;;
32451;SDS011;45528;52.102;5.242;2023-05-07T01:21:40;14.7;;;10.6;;
32451;SDS011;45528;52.102;5.242;2023-05-07T01:23:22;15.5;;;10.1;;
32451;SDS011;45528;52.102;5.242;2023-05-07T01:24:59;13.1;;;10.9;;
32451;SDS011;45528;52.102;5.242;2023-05-07T01:28:13;13.8;;;10.8;;
32451;SDS011;45528;52.102;5.242;2023-05-07T01:29:49;12.2;;;10.0;;
32451;SDS011;45528;52.102;5.242;2023-05-07T01:31:26;13.9;;;10.4;;
32451;SDS011;45528;52.102;5.242;2023-05-07T01:34:44;11.3;;;9.81;;
32451;SDS011;45528;52.102;5.242;2023-05-07T01:36:24;12.2;;;9.31;;
32451;SDS011;45528;52.102;5.242;2023-05-07T01:38:02;13.6;;;9.1;;
32451;SDS011;45528;52.102;5.242;2023-05-07T01:39:39;11.5;;;9.1;;
32451;SDS011;45528;52.102;5.242;2023-05-07T01:42:54;12.5;;;9.31;;
32451;SDS011;45528;52.102;5.242;2023-05-07T01:44:30;12.5;;;9.31;;
32451;SDS011;45528;52.102;5.242;2023-05-07T01:46:06;11.1;;;9.31;;
32451;SDS011;45528;52.102;5.242;2023-05-07T01:49:20;13.6;;;10.0;;
32451;SDS011;45528;52.102;5.242;2023-05-07T01:50:56;15.2;;;10.7;;
32451;SDS011;45528;52.102;5.242;2023-05-07T01:52:34;15.5;;;11.4;;
32451;SDS011;45528;52.102;5.242;2023-05-07T01:54:11;15.1;;;10.6;;
32451;SDS011;45528;52.102;5.242;2023-05-07T01:57:24;14.2;;;11.3;;
32451;SDS011;45528;52.102;5.242;2023-05-07T01:59:00;15.4;;;11.9;;
32451;SDS011;45528;52.102;5.242;2023-05-07T02:00:36;15.1;;;11.2;;
32451;SDS011;45528;52.102;5.242;2023-05-07T02:03:49;14.6;;;11.6;;
32451;SDS011;45528;52.102;5.242;2023-05-07T02:05:25;14.5;;;11.2;;
32451;SDS011;45528;52.102;5.242;2023-05-07T02:07:02;14.9;;;11.4;;
32451;SDS011;45528;52.102;5.242;2023-05-07T02:10:14;19.2;;;11.9;;
32451;SDS011;45528;52.102;5.242;2023-05-07T02:11:50;15.7;;;11.7;;
32451;SDS011;45528;52.102;5.242;2023-05-07T02:13:28;17.2;;;12.7;;
32451;SDS011;45528;52.102;5.242;2023-05-07T02:15:05;16.2;;;11.4;;
32451;SDS011;45528;52.102;5.242;2023-05-07T02:18:18;15.9;;;12.2;;
32451;SDS011;45528;52.102;5.242;2023-05-07T02:19:55;17.3;;;11.8;;
32451;SDS011;45528;52.102;5.242;2023-05-07T02:21:31;16.11;;;12.4;;
32451;SDS011;45528;52.102;5.242;2023-05-07T02:24:44;15.2;;;11.5;;
32451;SDS011;45528;52.102;5.242;2023-05-07T02:26:20;15.6;;;11.3;;
32451;SDS011;45528;52.102;5.242;2023-05-07T02:27:56;15.1;;;12.0;;
32451;SDS011;45528;52.102;5.242;2023-05-07T02:31:08;16.9;;;11.8;;
32451;SDS011;45528;52.102;5.242;2023-05-07T02:32:45;18.5;;;11.4;;
32451;SDS011;45528;52.102;5.242;2023-05-07T02:34:21;15.6;;;11.5;;
32451;SDS011;45528;52.102;5.242;2023-05-07T02:37:41;16.7;;;12.1;;
32451;SDS011;45528;52.102;5.242;2023-05-07T02:39:17;15.2;;;10.8;;
32451;SDS011;45528;52.102;5.242;2023-05-07T02:40:53;18.61;;;12.1;;
32451;SDS011;45528;52.102;5.242;2023-05-07T02:42:30;19.7;;;12.8;;
32451;SDS011;45528;52.102;5.242;2023-05-07T02:45:44;19.2;;;12.5;;
32451;SDS011;45528;52.102;5.242;2023-05-07T02:47:20;14.6;;;11.2;;
32451;SDS011;45528;52.102;5.242;2023-05-07T02:48:56;15.6;;;12.9;;
32451;SDS011;45528;52.102;5.242;2023-05-07T02:52:08;18.2;;;12.5;;
32451;SDS011;45528;52.102;5.242;2023-05-07T02:53:44;17.3;;;11.6;;
32451;SDS011;45528;52.102;5.242;2023-05-07T02:55:21;13.8;;;10.8;;
32451;SDS011;45528;52.102;5.242;2023-05-07T02:56:57;14.1;;;11.0;;
32451;SDS011;45528;52.102;5.242;2023-05-07T03:00:10;11.9;;;10.1;;
32451;SDS011;45528;52.102;5.242;2023-05-07T03:01:47;14.2;;;11.2;;
32451;SDS011;45528;52.102;5.242;2023-05-07T03:03:24;17.3;;;12.3;;
32451;SDS011;45528;52.102;5.242;2023-05-07T03:06:36;15.9;;;11.9;;
32451;SDS011;45528;52.102;5.242;2023-05-07T03:08:12;16.3;;;12.6;;
32451;SDS011;45528;52.102;5.242;2023-05-07T03:09:48;16.11;;;12.5;;
32451;SDS011;45528;52.102;5.242;2023-05-07T03:13:00;16.7;;;12.2;;
32451;SDS011;45528;52.102;5.242;2023-05-07T03:14:38;18.2;;;13.8;;
32451;SDS011;45528;52.102;5.242;2023-05-07T03:16:14;16.5;;;12.3;;
32451;SDS011;45528;52.102;5.242;2023-05-07T03:17:51;16.3;;;12.0;;
32451;SDS011;45528;52.102;5.242;2023-05-07T03:21:03;13.6;;;12.2;;
32451;SDS011;45528;52.102;5.242;2023-05-07T03:22:39;17.41;;;13.4;;
32451;SDS011;45528;52.102;5.242;2023-05-07T03:24:16;20.2;;;14.7;;
32451;SDS011;45528;52.102;5.242;2023-05-07T03:27:29;20.0;;;15.0;;
32451;SDS011;45528;52.102;5.242;2023-05-07T03:29:05;18.2;;;14.7;;
32451;SDS011;45528;52.102;5.242;2023-05-07T03:30:41;18.3;;;14.6;;
32451;SDS011;45528;52.102;5.242;2023-05-07T03:33:54;17.11;;;13.5;;
32451;SDS011;45528;52.102;5.242;2023-05-07T03:35:31;18.11;;;13.7;;
32451;SDS011;45528;52.102;5.242;2023-05-07T03:37:08;18.7;;;14.2;;
32451;SDS011;45528;52.102;5.242;2023-05-07T03:40:21;15.9;;;13.2;;
32451;SDS011;45528;52.102;5.242;2023-05-07T03:41:57;18.3;;;13.5;;
32451;SDS011;45528;52.102;5.242;2023-05-07T03:43:34;18.61;;;15.0;;
32451;SDS011;45528;52.102;5.242;2023-05-07T03:45:10;17.8;;;14.4;;
32451;SDS011;45528;52.102;5.242;2023-05-07T03:48:23;22.7;;;16.0;;
32451;SDS011;45528;52.102;5.242;2023-05-07T03:49:59;23.2;;;17.5;;
32451;SDS011;45528;52.102;5.242;2023-05-07T03:51:35;21.0;;;17.11;;
32451;SDS011;45528;52.102;5.242;2023-05-07T03:54:48;20.5;;;16.3;;
32451;SDS011;45528;52.102;5.242;2023-05-07T03:56:24;21.8;;;16.7;;
32451;SDS011;45528;52.102;5.242;2023-05-07T03:58:00;23.5;;;17.8;;
32451;SDS011;45528;52.102;5.242;2023-05-07T04:01:13;20.8;;;16.8;;
32451;SDS011;45528;52.102;5.242;2023-05-07T04:02:49;21.4;;;16.0;;
32451;SDS011;45528;52.102;5.242;2023-05-07T04:04:25;22.9;;;16.4;;
32451;SDS011;45528;52.102;5.242;2023-05-07T04:06:01;22.8;;;17.11;;
32451;SDS011;45528;52.102;5.242;2023-05-07T04:09:14;20.5;;;17.11;;
32451;SDS011;45528;52.102;5.242;2023-05-07T04:10:54;22.8;;;18.5;;
32451;SDS011;45528;52.102;5.242;2023-05-07T04:12:31;24.7;;;19.0;;
32451;SDS011;45528;52.102;5.242;2023-05-07T04:15:43;25.4;;;19.91;;
32451;SDS011;45528;52.102;5.242;2023-05-07T04:17:19;22.9;;;18.41;;
32451;SDS011;45528;52.102;5.242;2023-05-07T04:18:55;27.7;;;20.5;;
32451;SDS011;45528;52.102;5.242;2023-05-07T04:22:10;30.3;;;21.6;;
32451;SDS011;45528;52.102;5.242;2023-05-07T04:23:48;26.6;;;20.2;;
32451;SDS011;45528;52.102;5.242;2023-05-07T04:25:24;22.7;;;18.3;;
32451;SDS011;45528;52.102;5.242;2023-05-07T04:27:01;27.6;;;21.1;;
32451;SDS011;45528;52.102;5.242;2023-05-07T04:30:14;26.5;;;19.61;;
32451;SDS011;45528;52.102;5.242;2023-05-07T04:31:50;27.2;;;21.1;;
32451;SDS011;45528;52.102;5.242;2023-05-07T04:33:26;28.1;;;22.0;;
32451;SDS011;45528;52.102;5.242;2023-05-07T04:36:39;27.5;;;20.6;;
32451;SDS011;45528;52.102;5.242;2023-05-07T04:38:17;28.9;;;20.6;;
32451;SDS011;45528;52.102;5.242;2023-05-07T04:39:53;29.3;;;21.5;;
32451;SDS011;45528;52.102;5.242;2023-05-07T04:43:05;27.9;;;20.8;;
32451;SDS011;45528;52.102;5.242;2023-05-07T04:44:41;27.4;;;22.1;;
32451;SDS011;45528;52.102;5.242;2023-05-07T04:46:19;23.9;;;20.3;;
32451;SDS011;45528;52.102;5.242;2023-05-07T04:47:55;27.3;;;20.9;;
32451;SDS011;45528;52.102;5.242;2023-05-07T04:51:08;28.3;;;21.7;;
32451;SDS011;45528;52.102;5.242;2023-05-07T04:52:44;23.5;;;19.2;;
32451;SDS011;45528;52.102;5.242;2023-05-07T04:54:20;26.7;;;21.0;;
32451;SDS011;45528;52.102;5.242;2023-05-07T04:57:33;25.9;;;20.8;;
32451;SDS011;45528;52.102;5.242;2023-05-07T04:59:09;26.6;;;21.1;;
32451;SDS011;45528;52.102;5.242;2023-05-07T05:00:46;24.8;;;20.2;;
32451;SDS011;45528;52.102;5.242;2023-05-07T05:03:58;27.5;;;21.3;;
32451;SDS011;45528;52.102;5.242;2023-05-07T05:05:34;28.7;;;21.9;;
32451;SDS011;45528;52.102;5.242;2023-05-07T05:07:10;26.6;;;21.2;;
32451;SDS011;45528;52.102;5.242;2023-05-07T05:08:46;27.0;;;20.9;;
32451;SDS011;45528;52.102;5.242;2023-05-07T05:11:58;27.6;;;21.4;;
32451;SDS011;45528;52.102;5.242;2023-05-07T05:13:35;31.8;;;22.3;;
32451;SDS011;45528;52.102;5.242;2023-05-07T05:15:11;24.5;;;20.0;;
32451;SDS011;45528;52.102;5.242;2023-05-07T05:18:24;27.8;;;20.8;;
32451;SDS011;45528;52.102;5.242;2023-05-07T05:20:00;26.5;;;21.1;;
32451;SDS011;45528;52.102;5.242;2023-05-07T05:21:36;24.8;;;20.3;;
32451;SDS011;45528;52.102;5.242;2023-05-07T05:24:49;24.9;;;18.8;;
32451;SDS011;45528;52.102;5.242;2023-05-07T05:26:25;28.1;;;20.6;;
32451;SDS011;45528;52.102;5.242;2023-05-07T05:28:01;26.2;;;18.8;;
32451;SDS011;45528;52.102;5.242;2023-05-07T05:31:13;24.0;;;18.0;;
32451;SDS011;45528;52.102;5.242;2023-05-07T05:32:49;22.7;;;17.91;;
32451;SDS011;45528;52.102;5.242;2023-05-07T05:34:25;26.0;;;19.5;;
32451;SDS011;45528;52.102;5.242;2023-05-07T05:36:02;24.1;;;18.2;;
32451;SDS011;45528;52.102;5.242;2023-05-07T05:39:15;23.7;;;17.7;;
32451;SDS011;45528;52.102;5.242;2023-05-07T05:40:53;25.4;;;19.3;;
32451;SDS011;45528;52.102;5.242;2023-05-07T05:42:29;27.2;;;20.11;;
32451;SDS011;45528;52.102;5.242;2023-05-07T05:45:42;24.2;;;19.5;;
32451;SDS011;45528;52.102;5.242;2023-05-07T05:47:18;26.3;;;19.5;;
32451;SDS011;45528;52.102;5.242;2023-05-07T05:48:54;26.0;;;19.41;;
32451;SDS011;45528;52.102;5.242;2023-05-07T05:52:06;25.4;;;19.7;;
32451;SDS011;45528;52.102;5.242;2023-05-07T05:53:42;26.2;;;19.41;;
32451;SDS011;45528;52.102;5.242;2023-05-07T05:55:19;28.0;;;19.7;;
32451;SDS011;45528;52.102;5.242;2023-05-07T05:56:56;27.0;;;19.2;;
32451;SDS011;45528;52.102;5.242;2023-05-07T06:00:09;27.1;;;19.11;;
32451;SDS011;45528;52.102;5.242;2023-05-07T06:01:46;27.9;;;20.3;;
32451;SDS011;45528;52.102;5.242;2023-05-07T06:03:22;28.1;;;19.8;;
32451;SDS011;45528;52.102;5.242;2023-05-07T06:06:34;24.2;;;19.2;;
32451;SDS011;45528;52.102;5.242;2023-05-07T06:08:11;28.5;;;19.61;;
32451;SDS011;45528;52.102;5.242;2023-05-07T06:09:46;27.9;;;19.91;;
32451;SDS011;45528;52.102;5.242;2023-05-07T06:12:59;23.0;;;18.7;;
32451;SDS011;45528;52.102;5.242;2023-05-07T06:14:35;26.1;;;19.8;;
32451;SDS011;45528;52.102;5.242;2023-05-07T06:16:11;25.6;;;19.2;;
32451;SDS011;45528;52.102;5.242;2023-05-07T06:17:48;25.6;;;19.3;;
32451;SDS011;45528;52.102;5.242;2023-05-07T06:21:01;30.1;;;20.0;;
32451;SDS011;45528;52.102;5.242;2023-05-07T06:22:38;27.1;;;19.61;;
32451;SDS011;45528;52.102;5.242;2023-05-07T06:24:14;25.7;;;18.61;;
32451;SDS011;45528;52.102;5.242;2023-05-07T06:27:27;24.3;;;18.91;;
32451;SDS011;45528;52.102;5.242;2023-05-07T06:29:04;24.5;;;19.3;;
32451;SDS011;45528;52.102;5.242;2023-05-07T06:30:40;26.5;;;18.7;;
32451;SDS011;45528;52.102;5.242;2023-05-07T06:33:54;24.6;;;18.5;;
32451;SDS011;45528;52.102;5.242;2023-05-07T06:35:30;24.6;;;19.3;;
32451;SDS011;45528;52.102;5.242;2023-05-07T06:37:07;26.7;;;19.41;;
32451;SDS011;45528;52.102;5.242;2023-05-07T06:38:43;26.2;;;18.2;;
32451;SDS011;45528;52.102;5.242;2023-05-07T06:41:55;27.0;;;19.61;;
32451;SDS011;45528;52.102;5.242;2023-05-07T06:43:32;28.3;;;20.2;;
32451;SDS011;45528;52.102;5.242;2023-05-07T06:45:09;25.9;;;18.3;;
32451;SDS011;45528;52.102;5.242;2023-05-07T06:48:21;26.5;;;19.7;;
32451;SDS011;45528;52.102;5.242;2023-05-07T06:49:58;24.3;;;18.11;;
32451;SDS011;45528;52.102;5.242;2023-05-07T06:51:34;24.6;;;17.3;;
32451;SDS011;45528;52.102;5.242;2023-05-07T06:54:46;28.1;;;19.0;;
32451;SDS011;45528;52.102;5.242;2023-05-07T06:56:22;22.5;;;17.61;;
32451;SDS011;45528;52.102;5.242;2023-05-07T06:57:58;24.6;;;18.8;;
32451;SDS011;45528;52.102;5.242;2023-05-07T07:01:11;26.6;;;18.91;;
32451;SDS011;45528;52.102;5.242;2023-05-07T07:02:48;36.31;;;22.1;;
32451;SDS011;45528;52.102;5.242;2023-05-07T07:04:23;25.6;;;19.0;;
32451;SDS011;45528;52.102;5.242;2023-05-07T07:06:00;27.7;;;19.7;;
32451;SDS011;45528;52.102;5.242;2023-05-07T07:09:12;25.6;;;19.41;;
32451;SDS011;45528;52.102;5.242;2023-05-07T07:10:48;24.9;;;19.2;;
32451;SDS011;45528;52.102;5.242;2023-05-07T07:12:25;28.7;;;21.0;;
32451;SDS011;45528;52.102;5.242;2023-05-07T07:15:37;29.6;;;20.41;;
32451;SDS011;45528;52.102;5.242;2023-05-07T07:17:13;31.8;;;21.4;;
32451;SDS011;45528;52.102;5.242;2023-05-07T07:18:49;26.3;;;19.3;;
32451;SDS011;45528;52.102;5.242;2023-05-07T07:22:03;28.1;;;21.0;;
32451;SDS011;45528;52.102;5.242;2023-05-07T07:23:39;36.1;;;21.7;;
32451;SDS011;45528;52.102;5.242;2023-05-07T07:25:15;28.0;;;20.5;;
32451;SDS011;45528;52.102;5.242;2023-05-07T07:26:52;26.5;;;20.3;;
32451;SDS011;45528;52.102;5.242;2023-05-07T07:30:05;30.3;;;20.9;;
32451;SDS011;45528;52.102;5.242;2023-05-07T07:31:43;25.2;;;18.91;;
32451;SDS011;45528;52.102;5.242;2023-05-07T07:33:19;29.7;;;20.7;;
32451;SDS011;45528;52.102;5.242;2023-05-07T07:36:31;27.6;;;19.7;;
32451;SDS011;45528;52.102;5.242;2023-05-07T07:38:07;27.2;;;20.5;;
32451;SDS011;45528;52.102;5.242;2023-05-07T07:39:43;27.4;;;20.3;;
32451;SDS011;45528;52.102;5.242;2023-05-07T07:42:56;25.9;;;19.7;;
32451;SDS011;45528;52.102;5.242;2023-05-07T07:44:33;26.7;;;20.41;;
32451;SDS011;45528;52.102;5.242;2023-05-07T07:46:10;27.6;;;19.5;;
32451;SDS011;45528;52.102;5.242;2023-05-07T07:47:48;26.3;;;20.11;;
32451;SDS011;45528;52.102;5.242;2023-05-07T07:51:00;28.4;;;19.91;;
32451;SDS011;45528;52.102;5.242;2023-05-07T07:52:36;27.7;;;20.11;;
32451;SDS011;45528;52.102;5.242;2023-05-07T07:54:14;25.4;;;19.11;;
32451;SDS011;45528;52.102;5.242;2023-05-07T07:57:26;24.0;;;18.7;;
32451;SDS011;45528;52.102;5.242;2023-05-07T07:59:03;22.0;;;18.11;;
32451;SDS011;45528;52.102;5.242;2023-05-07T08:00:39;22.6;;;17.3;;
32451;SDS011;45528;52.102;5.242;2023-05-07T08:03:52;21.3;;;16.9;;
32451;SDS011;45528;52.102;5.242;2023-05-07T08:05:29;25.3;;;18.61;;
32451;SDS011;45528;52.102;5.242;2023-05-07T08:07:06;26.8;;;19.41;;
32451;SDS011;45528;52.102;5.242;2023-05-07T08:08:42;26.3;;;19.7;;
32451;SDS011;45528;52.102;5.242;2023-05-07T08:11:56;25.8;;;20.0;;
32451;SDS011;45528;52.102;5.242;2023-05-07T08:13:33;26.8;;;19.5;;
32451;SDS011;45528;52.102;5.242;2023-05-07T08:15:10;26.5;;;19.2;;
32451;SDS011;45528;52.102;5.242;2023-05-07T08:18:23;24.1;;;19.61;;
32451;SDS011;45528;52.102;5.242;2023-05-07T08:20:01;25.4;;;19.8;;
32451;SDS011;45528;52.102;5.242;2023-05-07T08:21:38;25.9;;;19.3;;
32451;SDS011;45528;52.102;5.242;2023-05-07T08:24:51;25.2;;;19.2;;
32451;SDS011;45528;52.102;5.242;2023-05-07T08:26:28;25.4;;;18.41;;
32451;SDS011;45528;52.102;5.242;2023-05-07T08:28:04;26.8;;;18.8;;
32451;SDS011;45528;52.102;5.242;2023-05-07T08:29:41;22.3;;;19.11;;
32451;SDS011;45528;52.102;5.242;2023-05-07T08:32:53;24.5;;;17.91;;
32451;SDS011;45528;52.102;5.242;2023-05-07T08:34:29;24.6;;;17.91;;
32451;SDS011;45528;52.102;5.242;2023-05-07T08:36:05;24.4;;;18.5;;
32451;SDS011;45528;52.102;5.242;2023-05-07T08:39:19;21.7;;;16.8;;
32451;SDS011;45528;52.102;5.242;2023-05-07T08:40:55;24.5;;;17.8;;
32451;SDS011;45528;52.102;5.242;2023-05-07T08:42:32;28.5;;;19.2;;
32451;SDS011;45528;52.102;5.242;2023-05-07T08:45:49;23.5;;;18.61;;
32451;SDS011;45528;52.102;5.242;2023-05-07T08:47:32;22.9;;;18.11;;
32451;SDS011;45528;52.102;5.242;2023-05-07T08:49:15;25.7;;;18.91;;
32451;SDS011;45528;52.102;5.242;2023-05-07T08:50:52;21.7;;;18.0;;
32451;SDS011;45528;52.102;5.242;2023-05-07T08:54:05;23.2;;;18.2;;
32451;SDS011;45528;52.102;5.242;2023-05-07T08:55:43;25.7;;;18.7;;
32451;SDS011;45528;52.102;5.242;2023-05-07T08:57:21;24.3;;;18.61;;
32451;SDS011;45528;52.102;5.242;2023-05-07T08:58:57;24.5;;;18.11;;
32451;SDS011;45528;52.102;5.242;2023-05-07T09:02:13;24.3;;;17.91;;
32451;SDS011;45528;52.102;5.242;2023-05-07T09:03:49;22.0;;;17.61;;
32451;SDS011;45528;52.102;5.242;2023-05-07T09:05:28;19.7;;;15.9;;
32451;SDS011;45528;52.102;5.242;2023-05-07T09:08:40;22.2;;;18.2;;
32451;SDS011;45528;52.102;5.242;2023-05-07T09:10:25;21.4;;;17.2;;
32451;SDS011;45528;52.102;5.242;2023-05-07T09:12:02;22.1;;;17.7;;
32451;SDS011;45528;52.102;5.242;2023-05-07T09:13:39;20.11;;;16.2;;
32451;SDS011;45528;52.102;5.242;2023-05-07T09:16:51;22.0;;;16.8;;
32451;SDS011;45528;52.102;5.242;2023-05-07T09:18:28;21.9;;;16.7;;
32451;SDS011;45528;52.102;5.242;2023-05-07T09:20:05;20.7;;;16.3;;
32451;SDS011;45528;52.102;5.242;2023-05-07T09:23:20;20.7;;;16.3;;
32451;SDS011;45528;52.102;5.242;2023-05-07T09:24:57;23.9;;;16.4;;
32451;SDS011;45528;52.102;5.242;2023-05-07T09:26:33;24.2;;;16.3;;
32451;SDS011;45528;52.102;5.242;2023-05-07T09:28:10;22.8;;;16.61;;
32451;SDS011;45528;52.102;5.242;2023-05-07T09:31:23;18.41;;;15.9;;
32451;SDS011;45528;52.102;5.242;2023-05-07T09:33:00;20.2;;;15.4;;
32451;SDS011;45528;52.102;5.242;2023-05-07T09:34:40;21.9;;;15.8;;
32451;SDS011;45528;52.102;5.242;2023-05-07T09:37:54;21.0;;;16.2;;
32451;SDS011;45528;52.102;5.242;2023-05-07T09:39:40;19.3;;;15.2;;
32451;SDS011;45528;52.102;5.242;2023-05-07T09:41:18;19.2;;;15.5;;
32451;SDS011;45528;52.102;5.242;2023-05-07T09:42:55;19.61;;;14.1;;
32451;SDS011;45528;52.102;5.242;2023-05-07T09:46:11;20.6;;;14.8;;
32451;SDS011;45528;52.102;5.242;2023-05-07T09:47:50;18.8;;;13.5;;
32451;SDS011;45528;52.102;5.242;2023-05-07T09:49:33;15.8;;;11.9;;
32451;SDS011;45528;52.102;5.242;2023-05-07T09:51:15;18.41;;;13.1;;
32451;SDS011;45528;52.102;5.242;2023-05-07T09:54:44;15.5;;;11.8;;
32451;SDS011;45528;52.102;5.242;2023-05-07T09:56:22;15.4;;;9.9;;
32451;SDS011;45528;52.102;5.242;2023-05-07T09:58:00;11.7;;;8.81;;
32451;SDS011;45528;52.102;5.242;2023-05-07T09:59:40;8.9;;;6.4;;
32451;SDS011;45528;52.102;5.242;2023-05-07T10:02:57;10.3;;;7.0;;
32451;SDS011;45528;52.102;5.242;2023-05-07T10:04:35;10.0;;;7.1;;
32451;SDS011;45528;52.102;5.242;2023-05-07T10:06:12;8.81;;;6.5;;
32451;SDS011;45528;52.102;5.242;2023-05-07T10:09:28;7.2;;;6.0;;
32451;SDS011;45528;52.102;5.242;2023-05-07T10:11:06;9.9;;;5.9;;
32451;SDS011;45528;52.102;5.242;2023-05-07T10:12:42;7.7;;;6.2;;
32451;SDS011;45528;52.102;5.242;2023-05-07T10:14:19;10.9;;;6.2;;
32451;SDS011;45528;52.102;5.242;2023-05-07T10:19:11;9.6;;;6.3;;
32451;SDS011;45528;52.102;5.242;2023-05-07T10:20:48;9.9;;;7.1;;
32451;SDS011;45528;52.102;5.242;2023-05-07T10:24:13;7.4;;;6.3;;
32451;SDS011;45528;52.102;5.242;2023-05-07T10:25:55;10.21;;;7.0;;
32451;SDS011;45528;52.102;5.242;2023-05-07T10:27:33;11.4;;;6.5;;
32451;SDS011;45528;52.102;5.242;2023-05-07T10:29:12;9.21;;;7.0;;
32451;SDS011;45528;52.102;5.242;2023-05-07T10:31:11;10.21;;;8.0;;
32451;SDS011;45528;52.102;5.242;2023-05-07T10:34:41;12.5;;;8.1;;
32451;SDS011;45528;52.102;5.242;2023-05-07T10:36:21;10.6;;;8.2;;
32451;SDS011;45528;52.102;5.242;2023-05-07T10:37:59;13.3;;;7.5;;
32451;SDS011;45528;52.102;5.242;2023-05-07T10:39:35;11.0;;;8.1;;
32451;SDS011;45528;52.102;5.242;2023-05-07T10:42:53;13.6;;;7.8;;
32451;SDS011;45528;52.102;5.242;2023-05-07T10:44:30;13.0;;;8.0;;
32451;SDS011;45528;52.102;5.242;2023-05-07T10:46:10;13.9;;;8.71;;
32451;SDS011;45528;52.102;5.242;2023-05-07T10:48:05;12.2;;;8.71;;
32451;SDS011;45528;52.102;5.242;2023-05-07T10:50:51;12.4;;;8.31;;
32451;SDS011;45528;52.102;5.242;2023-05-07T10:53:26;14.7;;;8.5;;
32451;SDS011;45528;52.102;5.242;2023-05-07T10:55:32;11.5;;;6.9;;
32451;SDS011;45528;52.102;5.242;2023-05-07T10:57:41;9.0;;;6.8;;
32451;SDS011;45528;52.102;5.242;2023-05-07T10:59:30;8.5;;;5.7;;
32451;SDS011;45528;52.102;5.242;2023-05-07T11:01:10;12.0;;;8.1;;
32451;SDS011;45528;52.102;5.242;2023-05-07T11:03:18;10.5;;;7.4;;
32451;SDS011;45528;52.102;5.242;2023-05-07T11:05:18;10.5;;;7.4;;
32451;SDS011;45528;52.102;5.242;2023-05-07T11:07:23;9.81;;;6.7;;
32451;SDS011;45528;52.102;5.242;2023-05-07T11:09:05;11.9;;;7.5;;
32451;SDS011;45528;52.102;5.242;2023-05-07T11:10:57;9.31;;;7.7;;
32451;SDS011;45528;52.102;5.242;2023-05-07T11:14:44;12.8;;;8.2;;
32451;SDS011;45528;52.102;5.242;2023-05-07T11:16:22;10.9;;;7.3;;
32451;SDS011;45528;52.102;5.242;2023-05-07T11:18:00;10.3;;;7.0;;
32451;SDS011;45528;52.102;5.242;2023-05-07T11:19:52;10.1;;;7.4;;
32451;SDS011;45528;52.102;5.242;2023-05-07T11:21:32;11.6;;;8.6;;
32451;SDS011;45528;52.102;5.242;2023-05-07T11:25:35;12.5;;;9.31;;
32451;SDS011;45528;52.102;5.242;2023-05-07T11:28:49;11.6;;;8.4;;
32451;SDS011;45528;52.102;5.242;2023-05-07T11:30:27;14.0;;;9.71;;
32451;SDS011;45528;52.102;5.242;2023-05-07T11:32:04;14.5;;;9.9;;
32451;SDS011;45528;52.102;5.242;2023-05-07T11:35:22;12.3;;;9.1;;
32451;SDS011;45528;52.102;5.242;2023-05-07T11:36:59;14.5;;;9.81;;
32451;SDS011;45528;52.102;5.242;2023-05-07T11:38:36;13.8;;;9.31;;
32451;SDS011;45528;52.102;5.242;2023-05-07T11:40:14;13.3;;;8.6;;
32451;SDS011;45528;52.102;5.242;2023-05-07T11:43:26;11.4;;;8.5;;
32451;SDS011;45528;52.102;5.242;2023-05-07T11:45:04;11.0;;;8.31;;
32451;SDS011;45528;52.102;5.242;2023-05-07T11:46:43;13.8;;;9.71;;
32451;SDS011;45528;52.102;5.242;2023-05-07T11:50:02;12.4;;;9.9;;
32451;SDS011;45528;52.102;5.242;2023-05-07T11:51:41;13.6;;;10.3;;
32451;SDS011;45528;52.102;5.242;2023-05-07T11:53:18;17.11;;;10.9;;
32451;SDS011;45528;52.102;5.242;2023-05-07T11:54:56;15.3;;;10.6;;
32451;SDS011;45528;52.102;5.242;2023-05-07T11:58:11;15.5;;;10.5;;
32451;SDS011;45528;52.102;5.242;2023-05-07T11:59:56;16.11;;;10.4;;
32451;SDS011;45528;52.102;5.242;2023-05-07T12:01:35;15.2;;;10.5;;
32451;SDS011;45528;52.102;5.242;2023-05-07T12:03:11;14.3;;;10.0;;
32451;SDS011;45528;52.102;5.242;2023-05-07T12:06:23;14.0;;;7.5;;
32451;SDS011;45528;52.102;5.242;2023-05-07T12:08:00;12.7;;;8.71;;
32451;SDS011;45528;52.102;5.242;2023-05-07T12:09:36;13.5;;;8.5;;
32451;SDS011;45528;52.102;5.242;2023-05-07T12:12:51;11.2;;;8.5;;
32451;SDS011;45528;52.102;5.242;2023-05-07T12:14:28;12.6;;;7.0;;
32451;SDS011;45528;52.102;5.242;2023-05-07T12:16:04;12.2;;;8.81;;
32451;SDS011;45528;52.102;5.242;2023-05-07T12:17:42;15.2;;;9.31;;
32451;SDS011;45528;52.102;5.242;2023-05-07T12:20:56;16.5;;;10.0;;
32451;SDS011;45528;52.102;5.242;2023-05-07T12:22:34;11.1;;;8.71;;
32451;SDS011;45528;52.102;5.242;2023-05-07T12:24:11;13.5;;;10.0;;
32451;SDS011;45528;52.102;5.242;2023-05-07T12:27:27;13.0;;;9.71;;
32451;SDS011;45528;52.102;5.242;2023-05-07T12:29:03;13.1;;;9.21;;
32451;SDS011;45528;52.102;5.242;2023-05-07T12:30:40;12.9;;;8.4;;
32451;SDS011;45528;52.102;5.242;2023-05-07T12:32:19;13.2;;;9.4;;
32451;SDS011;45528;52.102;5.242;2023-05-07T12:35:36;10.6;;;8.9;;
32451;SDS011;45528;52.102;5.242;2023-05-07T12:37:16;14.5;;;8.1;;
32451;SDS011;45528;52.102;5.242;2023-05-07T12:38:53;12.6;;;7.8;;
32451;SDS011;45528;52.102;5.242;2023-05-07T12:42:15;13.7;;;9.5;;